Time;durP1;ratioP1;P1;durP2;ratioP2;P2;SDS_P1;SDS_P2;PMS_P1;PMS_P2;Temp;Humidity;BMP_temperature;BMP_pressure;BME280_temperature;BME280_humidity;BME280_pressure;Samples;Min_cycle;Max_cycle;Signal;HPM_P1;HPM_P2
2023/05/21 00:04:50;;;;;;;;;5.50;5.50;;;;;;;;2;216065128;216065128;-88
2023/05/21 00:13:05;;;;;;;;;10.50;10.50;;;;;;;;2;261076010;261076010;-88
2023/05/21 00:21:21;;;;;;;;;6.50;6.50;;;;;;;;2;216063995;216063995;-88
2023/05/21 00:29:37;;;;;;;;;7.50;7.50;;;;;;;;2;261074573;261074573;-88
2023/05/21 00:37:52;;;;;;;;;10.50;10.50;;;;;;;;2;216064410;216064410;-88
2023/05/21 00:46:12;;;;;;;;;11.50;11.50;;;;;;;;2;261077334;261077334;-88
2023/05/21 00:54:28;;;;;;;;;8.50;8.50;;;;;;;;2;216064792;216064792;-88
2023/05/21 01:02:44;;;;;;;;;9.50;9.50;;;;;;;;2;261078024;261078024;-88
2023/05/21 01:11:01;;;;;;;;;9.00;9.00;;;;;;;;2;216064518;216064518;-87
2023/05/21 01:19:20;;;;;;;;;12.50;12.50;;;;;;;;2;261078076;261078076;-88
2023/05/21 01:27:36;;;;;;;;;13.50;13.50;;;;;;;;2;216066572;216066572;-87
2023/05/21 01:35:51;;;;;;;;;11.50;11.50;;;;;;;;2;261074871;261074871;-88
2023/05/21 01:44:07;;;;;;;;;8.50;8.50;;;;;;;;2;216061384;216061384;-88
2023/05/21 01:52:23;;;;;;;;;7.50;7.50;;;;;;;;2;261076106;261076106;-88
2023/05/21 02:00:38;;;;;;;;;12.50;12.50;;;;;;;;2;216065619;216065619;-88
2023/05/21 02:08:54;;;;;;;;;9.00;9.00;;;;;;;;2;261076156;261076156;-88
2023/05/21 02:17:09;;;;;;;;;14.00;14.00;;;;;;;;2;216064775;216064775;-88
2023/05/21 02:25:25;;;;;;;;;12.00;12.00;;;;;;;;2;261077006;261077006;-88
2023/05/21 02:33:40;;;;;;;;;20.50;20.50;;;;;;;;2;216065359;216065359;-88
2023/05/21 02:41:56;;;;;;;;;10.50;10.50;;;;;;;;2;261074872;261074872;-88
2023/05/21 02:50:14;;;;;;;;;15.00;15.00;;;;;;;;2;216066517;216066517;-87
2023/05/21 02:58:32;;;;;;;;;11.50;11.50;;;;;;;;2;261077623;261077623;-87
2023/05/21 03:06:50;;;;;;;;;16.00;16.00;;;;;;;;2;216061740;216061740;-88
2023/05/21 03:15:06;;;;;;;;;13.50;13.50;;;;;;;;2;261074824;261074824;-88
2023/05/21 03:23:21;;;;;;;;;16.00;16.00;;;;;;;;2;216064348;216064348;-88
2023/05/21 03:31:37;;;;;;;;;10.00;10.00;;;;;;;;2;261076052;261076052;-88
2023/05/21 03:39:52;;;;;;;;;19.50;19.50;;;;;;;;2;216062196;216062196;-88
2023/05/21 03:48:07;;;;;;;;;15.50;15.50;;;;;;;;2;261077771;261077771;-88
2023/05/21 03:56:23;;;;;;;;;15.00;15.00;;;;;;;;2;216064396;216064396;-87
2023/05/21 04:04:38;;;;;;;;;19.00;19.00;;;;;;;;2;261075879;261075879;-88
2023/05/21 04:12:53;;;;;;;;;14.00;14.00;;;;;;;;2;216063990;216063990;-88
2023/05/21 04:21:11;;;;;;;;;18.00;15.00;;;;;;;;2;261076761;261076761;-88
2023/05/21 04:29:26;;;;;;;;;17.50;17.50;;;;;;;;2;216064730;216064730;-88
2023/05/21 04:37:44;;;;;;;;;26.00;26.00;;;;;;;;2;261075447;261075447;-87
2023/05/21 04:46:00;;;;;;;;;10.50;10.50;;;;;;;;2;216062379;216062379;-88
2023/05/21 04:54:15;;;;;;;;;12.50;12.50;;;;;;;;2;261074089;261074089;-88
2023/05/21 05:02:31;;;;;;;;;17.00;17.00;;;;;;;;2;216063579;216063579;-87
2023/05/21 05:10:46;;;;;;;;;18.50;18.50;;;;;;;;2;261075504;261075504;-88
2023/05/21 05:19:02;;;;;;;;;20.00;20.00;;;;;;;;2;216062896;216062896;-87
2023/05/21 05:27:17;;;;;;;;;17.00;17.00;;;;;;;;2;261077788;261077788;-87
2023/05/21 05:35:32;;;;;;;;;17.00;17.00;;;;;;;;2;216065759;216065759;-88
2023/05/21 05:43:48;;;;;;;;;26.00;26.00;;;;;;;;2;261078188;261078188;-88
2023/05/21 05:52:03;;;;;;;;;22.00;22.00;;;;;;;;2;216065003;216065003;-87
2023/05/21 06:00:19;;;;;;;;;17.50;17.50;;;;;;;;2;261074950;261074950;-88
2023/05/21 06:08:34;;;;;;;;;17.00;17.00;;;;;;;;2;216064021;216064021;-88
2023/05/21 06:16:50;;;;;;;;;19.00;19.00;;;;;;;;2;261075826;261075826;-88
2023/05/21 06:25:05;;;;;;;;;18.50;18.50;;;;;;;;2;216063151;216063151;-88
2023/05/21 06:33:22;;;;;;;;;13.00;13.00;;;;;;;;2;261075708;261075708;-88
2023/05/21 06:41:37;;;;;;;;;9.50;9.50;;;;;;;;2;216063401;216063401;-88
2023/05/21 06:49:52;;;;;;;;;10.50;10.50;;;;;;;;2;261076689;261076689;-88
2023/05/21 06:58:11;;;;;;;;;9.00;9.00;;;;;;;;2;216064674;216064674;-88
2023/05/21 07:06:26;;;;;;;;;12.00;12.00;;;;;;;;2;261073784;261073784;-88
2023/05/21 07:14:42;;;;;;;;;19.00;19.00;;;;;;;;2;216063485;216063485;-88
2023/05/21 07:22:57;;;;;;;;;12.00;12.00;;;;;;;;2;261075063;261075063;-88
2023/05/21 07:31:12;;;;;;;;;11.00;11.00;;;;;;;;2;216064810;216064810;-88
2023/05/21 07:39:28;;;;;;;;;4.50;4.50;;;;;;;;2;261079781;261079781;-88
2023/05/21 07:47:44;;;;;;;;;10.50;10.50;;;;;;;;2;216061026;216061026;-88
2023/05/21 07:56:00;;;;;;;;;9.00;9.00;;;;;;;;2;261077571;261077571;-88
2023/05/21 08:04:15;;;;;;;;;7.00;7.00;;;;;;;;2;216063976;216063976;-88
2023/05/21 08:12:31;;;;;;;;;4.00;4.00;;;;;;;;2;261076905;261076905;-88
2023/05/21 08:20:47;;;;;;;;;4.50;4.50;;;;;;;;2;216062737;216062737;-88
2023/05/21 08:29:02;;;;;;;;;6.00;6.00;;;;;;;;2;261076833;261076833;-88
2023/05/21 08:37:19;;;;;;;;;8.50;8.50;;;;;;;;2;216063406;216063406;-88
2023/05/21 08:45:36;;;;;;;;;9.00;9.00;;;;;;;;2;261076193;261076193;-88
2023/05/21 08:53:52;;;;;;;;;7.50;7.50;;;;;;;;2;216061266;216061266;-88
2023/05/21 09:02:07;;;;;;;;;5.50;5.50;;;;;;;;2;261078016;261078016;-88
2023/05/21 09:10:25;;;;;;;;;3.00;3.00;;;;;;;;2;216062439;216062439;-88
2023/05/21 09:18:41;;;;;;;;;4.00;4.00;;;;;;;;2;261077255;261077255;-88
2023/05/21 09:26:57;;;;;;;;;4.50;4.50;;;;;;;;2;216063546;216063546;-88
2023/05/21 09:35:13;;;;;;;;;4.00;4.00;;;;;;;;2;261076670;261076670;-88
2023/05/21 09:43:29;;;;;;;;;4.00;4.00;;;;;;;;2;216064064;216064064;-88
2023/05/21 09:51:45;;;;;;;;;6.50;6.50;;;;;;;;2;261077266;261077266;-88
2023/05/21 10:00:00;;;;;;;;;11.00;11.00;;;;;;;;2;216063184;216063184;-88
2023/05/21 10:08:17;;;;;;;;;6.50;6.50;;;;;;;;2;261076456;261076456;-88
2023/05/21 10:16:36;;;;;;;;;9.00;9.00;;;;;;;;2;216065450;216065450;-88
2023/05/21 10:24:51;;;;;;;;;11.00;11.00;;;;;;;;2;261078762;261078762;-89
2023/05/21 10:33:08;;;;;;;;;8.50;8.50;;;;;;;;2;216062167;216062167;-88
2023/05/21 10:41:26;;;;;;;;;12.50;9.50;;;;;;;;2;261077017;261077017;-88
2023/05/21 10:49:52;;;;;;;;;9.50;9.50;;;;;;;;2;216064172;216064172;-88
2023/05/21 10:58:26;;;;;;;;;7.50;7.50;;;;;;;;2;261077450;261077450;-88
2023/05/21 11:06:48;;;;;;;;;8.50;8.50;;;;;;;;2;216062124;216062124;-88
2023/05/21 11:15:05;;;;;;;;;15.00;15.00;;;;;;;;2;261076817;261076817;-88
2023/05/21 11:23:20;;;;;;;;;12.50;12.50;;;;;;;;2;216064075;216064075;-88
2023/05/21 11:31:38;;;;;;;;;10.00;10.00;;;;;;;;2;261077739;261077739;-88
2023/05/21 11:39:55;;;;;;;;;7.00;7.00;;;;;;;;2;216065577;216065577;-88
2023/05/21 11:48:12;;;;;;;;;7.00;7.00;;;;;;;;2;261075729;261075729;-88
2023/05/21 11:56:27;;;;;;;;;21.50;13.00;;;;;;;;2;216062111;216062111;-89
2023/05/21 12:04:44;;;;;;;;;8.00;8.00;;;;;;;;2;261074180;261074180;-89
2023/05/21 12:13:00;;;;;;;;;7.00;7.00;;;;;;;;2;216062841;216062841;-88
2023/05/21 12:21:16;;;;;;;;;7.00;7.00;;;;;;;;2;261074227;261074227;-88
2023/05/21 12:29:34;;;;;;;;;10.00;10.00;;;;;;;;2;216060377;216060377;-88
2023/05/21 12:37:49;;;;;;;;;19.00;7.00;;;;;;;;2;261074999;261074999;-88
2023/05/21 12:46:05;;;;;;;;;12.50;12.50;;;;;;;;2;216063711;216063711;-88
2023/05/21 12:54:27;;;;;;;;;17.50;17.50;;;;;;;;2;261078042;261078042;-88
2023/05/21 13:02:42;;;;;;;;;10.00;10.00;;;;;;;;2;216063847;216063847;-88
2023/05/21 13:10:58;;;;;;;;;11.50;11.50;;;;;;;;2;261076042;261076042;-88
2023/05/21 13:19:14;;;;;;;;;18.00;18.00;;;;;;;;2;216062640;216062640;-88
2023/05/21 13:27:29;;;;;;;;;23.50;23.50;;;;;;;;2;261077166;261077166;-88
2023/05/21 13:35:49;;;;;;;;;36.50;28.00;;;;;;;;2;216062297;216062297;-88
2023/05/21 13:44:05;;;;;;;;;23.50;23.50;;;;;;;;2;261077053;261077053;-88
2023/05/21 13:52:20;;;;;;;;;24.00;24.00;;;;;;;;2;216062527;216062527;-88
2023/05/21 14:00:36;;;;;;;;;19.00;19.00;;;;;;;;2;261077445;261077445;-88
2023/05/21 14:08:51;;;;;;;;;18.50;18.50;;;;;;;;2;216065234;216065234;-88
2023/05/21 14:17:06;;;;;;;;;17.00;17.00;;;;;;;;2;261074976;261074976;-88
2023/05/21 14:25:22;;;;;;;;;20.00;20.00;;;;;;;;2;216066082;216066082;-88
2023/05/21 14:33:37;;;;;;;;;18.50;18.50;;;;;;;;2;261075409;261075409;-88
2023/05/21 14:41:53;;;;;;;;;22.00;22.00;;;;;;;;2;216062940;216062940;-88
2023/05/21 14:50:08;;;;;;;;;12.50;12.50;;;;;;;;2;261074219;261074219;-88
2023/05/21 14:58:24;;;;;;;;;8.50;8.50;;;;;;;;2;216064741;216064741;-88
2023/05/21 15:06:39;;;;;;;;;13.00;13.00;;;;;;;;2;261075923;261075923;-88
2023/05/21 15:14:55;;;;;;;;;10.50;10.50;;;;;;;;2;216061383;216061383;-88
2023/05/21 15:23:10;;;;;;;;;14.00;14.00;;;;;;;;2;261075158;261075158;-88
2023/05/21 15:31:26;;;;;;;;;12.00;12.00;;;;;;;;2;216064868;216064868;-88
2023/05/21 15:39:41;;;;;;;;;4.00;4.00;;;;;;;;2;261075503;261075503;-88
2023/05/21 15:47:56;;;;;;;;;6.50;6.50;;;;;;;;2;216061322;216061322;-88
2023/05/21 15:56:12;;;;;;;;;7.50;7.50;;;;;;;;2;261074575;261074575;-88
2023/05/21 16:04:27;;;;;;;;;9.00;9.00;;;;;;;;2;216063899;216063899;-88
2023/05/21 16:12:43;;;;;;;;;12.50;12.50;;;;;;;;2;261074213;261074213;-88
2023/05/21 16:20:58;;;;;;;;;5.00;5.00;;;;;;;;2;216062778;216062778;-88
2023/05/21 16:29:13;;;;;;;;;2.50;2.50;;;;;;;;2;261076412;261076412;-88
2023/05/21 16:37:29;;;;;;;;;9.50;6.50;;;;;;;;2;216064487;216064487;-88
2023/05/21 16:45:45;;;;;;;;;10.00;10.00;;;;;;;;2;261077551;261077551;-88
2023/05/21 16:54:02;;;;;;;;;5.00;5.00;;;;;;;;2;216065001;216065001;-88
2023/05/21 17:02:18;;;;;;;;;6.00;6.00;;;;;;;;2;261076541;261076541;-88
2023/05/21 17:10:33;;;;;;;;;8.00;8.00;;;;;;;;2;216063417;216063417;-88
2023/05/21 17:18:49;;;;;;;;;4.00;4.00;;;;;;;;2;261078427;261078427;-88
2023/05/21 17:27:05;;;;;;;;;8.00;8.00;;;;;;;;2;216066199;216066199;-88
2023/05/21 17:35:20;;;;;;;;;6.50;6.50;;;;;;;;2;261077115;261077115;-88
2023/05/21 17:43:35;;;;;;;;;4.00;4.00;;;;;;;;2;216064396;216064396;-88
2023/05/21 17:51:51;;;;;;;;;4.50;4.50;;;;;;;;2;261075722;261075722;-88
2023/05/21 18:00:07;;;;;;;;;6.00;6.00;;;;;;;;2;216064564;216064564;-88
2023/05/21 18:08:22;;;;;;;;;4.50;4.50;;;;;;;;2;261075513;261075513;-88
2023/05/21 18:16:38;;;;;;;;;5.50;5.50;;;;;;;;2;216063839;216063839;-88
2023/05/21 18:24:53;;;;;;;;;5.50;5.50;;;;;;;;2;261075632;261075632;-88
2023/05/21 18:33:11;;;;;;;;;5.50;5.50;;;;;;;;2;216063506;216063506;-88
2023/05/21 18:41:26;;;;;;;;;7.00;7.00;;;;;;;;2;261077066;261077066;-88
2023/05/21 18:49:42;;;;;;;;;6.50;6.50;;;;;;;;2;216064643;216064643;-88
2023/05/21 18:57:57;;;;;;;;;4.50;4.50;;;;;;;;2;261077734;261077734;-88
2023/05/21 19:06:12;;;;;;;;;8.00;8.00;;;;;;;;2;216063439;216063439;-88
2023/05/21 19:14:28;;;;;;;;;3.00;3.00;;;;;;;;2;261077264;261077264;-88
2023/05/21 19:22:46;;;;;;;;;6.00;6.00;;;;;;;;2;216063934;216063934;-88
2023/05/21 19:31:01;;;;;;;;;6.00;6.00;;;;;;;;2;261078194;261078194;-88
2023/05/21 19:42:36;;;;;;;;;6.00;6.00;;;;;;;;2;216059703;216059703;-88
2023/05/21 19:50:51;;;;;;;;;0.00;0.00;;;;;;;;2;261073702;261073702;-88
2023/05/21 19:59:07;;;;;;;;;12.00;12.00;;;;;;;;2;216064199;216064199;-88
2023/05/21 20:07:22;;;;;;;;;7.50;7.50;;;;;;;;2;261077178;261077178;-88
2023/05/21 20:15:38;;;;;;;;;5.50;5.50;;;;;;;;2;216065539;216065539;-88
2023/05/21 20:23:53;;;;;;;;;4.50;4.50;;;;;;;;2;261078349;261078349;-88
2023/05/21 20:32:08;;;;;;;;;9.00;9.00;;;;;;;;2;216065872;216065872;-88
2023/05/21 20:40:24;;;;;;;;;5.50;5.50;;;;;;;;2;261074546;261074546;-88
2023/05/21 20:48:40;;;;;;;;;6.50;6.50;;;;;;;;2;216063970;216063970;-88
2023/05/21 20:56:57;;;;;;;;;4.00;4.00;;;;;;;;2;261078303;261078303;-88
2023/05/21 21:05:13;;;;;;;;;13.00;13.00;;;;;;;;2;216065279;216065279;-88
2023/05/21 21:13:28;;;;;;;;;4.50;4.50;;;;;;;;2;261078331;261078331;-88
2023/05/21 21:21:44;;;;;;;;;8.50;8.50;;;;;;;;2;216064960;216064960;-88
2023/05/21 21:29:59;;;;;;;;;10.00;10.00;;;;;;;;2;261077247;261077247;-88
2023/05/21 21:38:15;;;;;;;;;7.00;7.00;;;;;;;;2;216062687;216062687;-88
2023/05/21 21:46:30;;;;;;;;;5.50;5.50;;;;;;;;2;261074100;261074100;-88
2023/05/21 21:54:46;;;;;;;;;5.50;5.50;;;;;;;;2;216063952;216063952;-88
2023/05/21 22:03:01;;;;;;;;;10.00;10.00;;;;;;;;2;261080289;261080289;-88
2023/05/21 22:11:16;;;;;;;;;5.00;5.00;;;;;;;;2;216064419;216064419;-88
2023/05/21 22:19:32;;;;;;;;;6.00;6.00;;;;;;;;2;261076879;261076879;-88
2023/05/21 22:27:47;;;;;;;;;5.00;5.00;;;;;;;;2;216064850;216064850;-88
2023/05/21 22:36:03;;;;;;;;;12.00;12.00;;;;;;;;2;261076997;261076997;-88
2023/05/21 22:44:21;;;;;;;;;7.00;7.00;;;;;;;;2;216064377;216064377;-88
2023/05/21 22:52:37;;;;;;;;;13.00;11.50;;;;;;;;2;261078212;261078212;-88
2023/05/21 23:00:53;;;;;;;;;7.50;7.50;;;;;;;;2;216065179;216065179;-87
2023/05/21 23:09:08;;;;;;;;;6.00;6.00;;;;;;;;2;261073340;261073340;-88
2023/05/21 23:17:23;;;;;;;;;7.50;7.50;;;;;;;;2;216065747;216065747;-88
2023/05/21 23:25:39;;;;;;;;;8.50;8.50;;;;;;;;2;261077353;261077353;-88
2023/05/21 23:33:55;;;;;;;;;5.50;5.50;;;;;;;;2;216066052;216066052;-88
2023/05/21 23:42:11;;;;;;;;;11.50;11.50;;;;;;;;2;261073743;261073743;-88
2023/05/21 23:50:26;;;;;;;;;3.50;3.50;;;;;;;;2;216061547;216061547;-88
2023/05/21 23:58:41;;;;;;;;;9.00;9.00;;;;;;;;2;261077324;261077324;-88
